sensor_id;sensor_type;location;lat;lon;timestamp;temperature;humidity
15003;DHT22;7597;53.590;10.020;2022-09-09T00:02:08;13.30;1.00
15003;DHT22;7597;53.590;10.020;2022-09-09T00:04:32;13.40;1.00
15003;DHT22;7597;53.590;10.020;2022-09-09T00:07:06;13.50;1.00
15003;DHT22;7597;53.590;10.020;2022-09-09T00:09:35;13.60;1.00
15003;DHT22;7597;53.590;10.020;2022-09-09T00:12:15;13.70;1.00
15003;DHT22;7597;53.590;10.020;2022-09-09T00:14:47;13.80;1.00
15003;DHT22;7597;53.590;10.020;2022-09-09T00:17:14;13.90;1.00
15003;DHT22;7597;53.590;10.020;2022-09-09T00:19:42;13.90;1.00
15003;DHT22;7597;53.590;10.020;2022-09-09T00:22:15;14.00;1.00
15003;DHT22;7597;53.590;10.020;2022-09-09T00:24:41;14.00;1.00
15003;DHT22;7597;53.590;10.020;2022-09-09T00:27:08;14.00;1.00
15003;DHT22;7597;53.590;10.020;2022-09-09T00:29:45;14.10;1.00
15003;DHT22;7597;53.590;10.020;2022-09-09T00:32:13;14.10;1.00
15003;DHT22;7597;53.590;10.020;2022-09-09T00:34:39;14.20;1.00
15003;DHT22;7597;53.590;10.020;2022-09-09T00:37:05;14.20;1.00
15003;DHT22;7597;53.590;10.020;2022-09-09T00:39:38;14.20;1.00
15003;DHT22;7597;53.590;10.020;2022-09-09T00:42:11;14.20;1.00
15003;DHT22;7597;53.590;10.020;2022-09-09T00:44:34;14.30;1.00
15003;DHT22;7597;53.590;10.020;2022-09-09T00:47:24;14.30;1.00
15003;DHT22;7597;53.590;10.020;2022-09-09T00:49:58;14.40;1.00
15003;DHT22;7597;53.590;10.020;2022-09-09T00:52:29;14.40;1.00
15003;DHT22;7597;53.590;10.020;2022-09-09T00:55:03;14.40;1.00
15003;DHT22;7597;53.590;10.020;2022-09-09T00:57:27;14.40;1.00
15003;DHT22;7597;53.590;10.020;2022-09-09T00:59:56;14.40;1.00
15003;DHT22;7597;53.590;10.020;2022-09-09T01:02:26;14.40;1.00
15003;DHT22;7597;53.590;10.020;2022-09-09T01:04:52;14.40;1.00
15003;DHT22;7597;53.590;10.020;2022-09-09T01:07:18;14.40;1.00
15003;DHT22;7597;53.590;10.020;2022-09-09T01:09:56;14.30;1.00
15003;DHT22;7597;53.590;10.020;2022-09-09T01:12:26;14.30;1.00
15003;DHT22;7597;53.590;10.020;2022-09-09T01:14:52;14.40;1.00
15003;DHT22;7597;53.590;10.020;2022-09-09T01:17:20;14.40;1.00
15003;DHT22;7597;53.590;10.020;2022-09-09T01:20:08;14.30;1.00
15003;DHT22;7597;53.590;10.020;2022-09-09T01:22:40;14.30;1.00
15003;DHT22;7597;53.590;10.020;2022-09-09T01:25:19;14.30;1.00
15003;DHT22;7597;53.590;10.020;2022-09-09T01:27:43;14.30;1.00
15003;DHT22;7597;53.590;10.020;2022-09-09T01:30:11;14.20;1.00
15003;DHT22;7597;53.590;10.020;2022-09-09T01:32:41;14.20;1.00
15003;DHT22;7597;53.590;10.020;2022-09-09T01:35:07;14.20;1.00
15003;DHT22;7597;53.590;10.020;2022-09-09T01:37:33;14.20;1.00
15003;DHT22;7597;53.590;10.020;2022-09-09T01:40:00;14.20;1.00
15003;DHT22;7597;53.590;10.020;2022-09-09T01:42:27;14.10;1.00
15003;DHT22;7597;53.590;10.020;2022-09-09T01:44:54;14.10;1.00
15003;DHT22;7597;53.590;10.020;2022-09-09T01:47:20;14.10;1.00
15003;DHT22;7597;53.590;10.020;2022-09-09T01:49:47;14.10;1.00
15003;DHT22;7597;53.590;10.020;2022-09-09T01:52:14;14.00;1.00
15003;DHT22;7597;53.590;10.020;2022-09-09T01:54:40;14.00;1.00
15003;DHT22;7597;53.590;10.020;2022-09-09T01:57:12;13.90;1.00
15003;DHT22;7597;53.590;10.020;2022-09-09T01:59:49;13.90;1.00
15003;DHT22;7597;53.590;10.020;2022-09-09T02:02:18;13.90;1.00
15003;DHT22;7597;53.590;10.020;2022-09-09T02:04:45;13.90;1.00
15003;DHT22;7597;53.590;10.020;2022-09-09T02:07:19;13.90;1.00
15003;DHT22;7597;53.590;10.020;2022-09-09T02:09:42;13.80;1.00
15003;DHT22;7597;53.590;10.020;2022-09-09T02:12:11;13.80;1.00
15003;DHT22;7597;53.590;10.020;2022-09-09T02:14:36;13.70;1.00
15003;DHT22;7597;53.590;10.020;2022-09-09T02:17:08;13.70;1.00
15003;DHT22;7597;53.590;10.020;2022-09-09T02:19:35;13.70;1.00
15003;DHT22;7597;53.590;10.020;2022-09-09T02:22:00;13.70;1.00
15003;DHT22;7597;53.590;10.020;2022-09-09T02:24:27;13.70;1.00
15003;DHT22;7597;53.590;10.020;2022-09-09T02:26:53;13.70;1.00
15003;DHT22;7597;53.590;10.020;2022-09-09T02:29:22;13.70;1.00
15003;DHT22;7597;53.590;10.020;2022-09-09T02:31:47;13.70;1.00
15003;DHT22;7597;53.590;10.020;2022-09-09T02:34:14;13.70;1.00
15003;DHT22;7597;53.590;10.020;2022-09-09T02:36:41;13.60;1.00
15003;DHT22;7597;53.590;10.020;2022-09-09T02:39:08;13.60;1.00
15003;DHT22;7597;53.590;10.020;2022-09-09T02:41:36;13.60;1.00
15003;DHT22;7597;53.590;10.020;2022-09-09T02:44:02;13.60;1.00
15003;DHT22;7597;53.590;10.020;2022-09-09T02:49:15;13.60;1.00
15003;DHT22;7597;53.590;10.020;2022-09-09T02:51:51;13.60;1.00
15003;DHT22;7597;53.590;10.020;2022-09-09T02:54:30;13.50;1.00
15003;DHT22;7597;53.590;10.020;2022-09-09T02:57:01;13.50;1.00
15003;DHT22;7597;53.590;10.020;2022-09-09T02:59:24;13.50;1.00
15003;DHT22;7597;53.590;10.020;2022-09-09T03:01:51;13.50;1.00
15003;DHT22;7597;53.590;10.020;2022-09-09T03:04:18;13.50;1.00
15003;DHT22;7597;53.590;10.020;2022-09-09T03:06:44;13.50;1.00
15003;DHT22;7597;53.590;10.020;2022-09-09T03:09:11;13.50;1.00
15003;DHT22;7597;53.590;10.020;2022-09-09T03:11:38;13.50;1.00
15003;DHT22;7597;53.590;10.020;2022-09-09T03:14:04;13.50;1.00
15003;DHT22;7597;53.590;10.020;2022-09-09T03:16:31;13.50;1.00
15003;DHT22;7597;53.590;10.020;2022-09-09T03:18:58;13.50;1.00
15003;DHT22;7597;53.590;10.020;2022-09-09T03:21:24;13.50;1.00
15003;DHT22;7597;53.590;10.020;2022-09-09T03:23:51;13.50;1.00
15003;DHT22;7597;53.590;10.020;2022-09-09T03:26:18;13.50;1.00
15003;DHT22;7597;53.590;10.020;2022-09-09T03:28:44;13.40;1.00
15003;DHT22;7597;53.590;10.020;2022-09-09T03:31:11;13.40;1.00
15003;DHT22;7597;53.590;10.020;2022-09-09T03:33:38;13.40;1.00
15003;DHT22;7597;53.590;10.020;2022-09-09T03:36:05;13.40;1.00
15003;DHT22;7597;53.590;10.020;2022-09-09T03:38:31;13.30;1.00
15003;DHT22;7597;53.590;10.020;2022-09-09T03:40:58;13.20;1.00
15003;DHT22;7597;53.590;10.020;2022-09-09T03:43:25;13.20;1.00
15003;DHT22;7597;53.590;10.020;2022-09-09T03:45:51;13.20;1.00
15003;DHT22;7597;53.590;10.020;2022-09-09T03:48:18;13.20;1.00
15003;DHT22;7597;53.590;10.020;2022-09-09T03:50:46;13.20;1.00
15003;DHT22;7597;53.590;10.020;2022-09-09T03:53:13;13.20;1.00
15003;DHT22;7597;53.590;10.020;2022-09-09T03:55:39;13.20;1.00
15003;DHT22;7597;53.590;10.020;2022-09-09T03:58:06;13.20;1.00
15003;DHT22;7597;53.590;10.020;2022-09-09T04:00:32;13.20;1.00
15003;DHT22;7597;53.590;10.020;2022-09-09T04:02:59;13.20;1.00
15003;DHT22;7597;53.590;10.020;2022-09-09T04:05:26;13.20;1.00
15003;DHT22;7597;53.590;10.020;2022-09-09T04:07:52;13.20;1.00
15003;DHT22;7597;53.590;10.020;2022-09-09T04:10:19;13.20;1.00
15003;DHT22;7597;53.590;10.020;2022-09-09T04:12:47;13.10;1.00
15003;DHT22;7597;53.590;10.020;2022-09-09T04:15:13;13.20;1.00
15003;DHT22;7597;53.590;10.020;2022-09-09T04:17:40;13.10;1.00
15003;DHT22;7597;53.590;10.020;2022-09-09T04:20:07;13.10;1.00
15003;DHT22;7597;53.590;10.020;2022-09-09T04:22:34;13.10;1.00
15003;DHT22;7597;53.590;10.020;2022-09-09T04:25:01;13.00;1.00
15003;DHT22;7597;53.590;10.020;2022-09-09T04:27:28;13.10;1.00
15003;DHT22;7597;53.590;10.020;2022-09-09T04:29:54;13.10;1.00
15003;DHT22;7597;53.590;10.020;2022-09-09T04:32:21;13.00;1.00
15003;DHT22;7597;53.590;10.020;2022-09-09T04:34:48;13.10;1.00
15003;DHT22;7597;53.590;10.020;2022-09-09T04:37:15;13.10;1.00
15003;DHT22;7597;53.590;10.020;2022-09-09T04:39:42;13.00;1.00
15003;DHT22;7597;53.590;10.020;2022-09-09T04:42:09;13.00;1.00
15003;DHT22;7597;53.590;10.020;2022-09-09T04:44:35;13.00;1.00
15003;DHT22;7597;53.590;10.020;2022-09-09T04:47:02;13.10;1.00
15003;DHT22;7597;53.590;10.020;2022-09-09T04:49:29;13.10;1.00
15003;DHT22;7597;53.590;10.020;2022-09-09T04:51:55;13.10;1.00
15003;DHT22;7597;53.590;10.020;2022-09-09T04:54:23;13.10;1.00
15003;DHT22;7597;53.590;10.020;2022-09-09T04:56:50;13.20;1.00
15003;DHT22;7597;53.590;10.020;2022-09-09T04:59:16;13.20;1.00
15003;DHT22;7597;53.590;10.020;2022-09-09T05:01:43;13.20;1.00
15003;DHT22;7597;53.590;10.020;2022-09-09T05:04:10;13.20;1.00
15003;DHT22;7597;53.590;10.020;2022-09-09T05:06:36;13.20;1.00
15003;DHT22;7597;53.590;10.020;2022-09-09T05:09:03;13.20;1.00
15003;DHT22;7597;53.590;10.020;2022-09-09T05:11:30;13.20;1.00
15003;DHT22;7597;53.590;10.020;2022-09-09T05:13:56;13.20;1.00
15003;DHT22;7597;53.590;10.020;2022-09-09T05:16:23;13.20;1.00
15003;DHT22;7597;53.590;10.020;2022-09-09T05:18:49;13.20;1.00
15003;DHT22;7597;53.590;10.020;2022-09-09T05:21:17;13.20;1.00
15003;DHT22;7597;53.590;10.020;2022-09-09T05:23:44;13.20;1.00
15003;DHT22;7597;53.590;10.020;2022-09-09T05:26:17;13.20;1.00
15003;DHT22;7597;53.590;10.020;2022-09-09T05:28:44;13.20;1.00
15003;DHT22;7597;53.590;10.020;2022-09-09T05:31:10;13.20;1.00
15003;DHT22;7597;53.590;10.020;2022-09-09T05:33:38;13.30;1.00
15003;DHT22;7597;53.590;10.020;2022-09-09T05:36:05;13.30;1.00
15003;DHT22;7597;53.590;10.020;2022-09-09T05:38:32;13.30;1.00
15003;DHT22;7597;53.590;10.020;2022-09-09T05:40:58;13.40;1.00
15003;DHT22;7597;53.590;10.020;2022-09-09T05:43:33;13.40;1.00
15003;DHT22;7597;53.590;10.020;2022-09-09T05:46:05;13.50;1.00
15003;DHT22;7597;53.590;10.020;2022-09-09T05:48:31;13.50;1.00
15003;DHT22;7597;53.590;10.020;2022-09-09T05:50:58;13.50;1.00
15003;DHT22;7597;53.590;10.020;2022-09-09T05:53:24;13.60;1.00
15003;DHT22;7597;53.590;10.020;2022-09-09T05:55:57;13.60;1.00
15003;DHT22;7597;53.590;10.020;2022-09-09T05:58:17;13.70;1.00
15003;DHT22;7597;53.590;10.020;2022-09-09T06:00:44;13.80;1.00
15003;DHT22;7597;53.590;10.020;2022-09-09T06:03:11;13.90;1.00
15003;DHT22;7597;53.590;10.020;2022-09-09T06:05:37;13.90;1.00
15003;DHT22;7597;53.590;10.020;2022-09-09T06:08:04;13.90;1.00
15003;DHT22;7597;53.590;10.020;2022-09-09T06:10:31;14.00;1.00
15003;DHT22;7597;53.590;10.020;2022-09-09T06:12:57;14.00;1.00
15003;DHT22;7597;53.590;10.020;2022-09-09T06:15:25;14.20;1.00
15003;DHT22;7597;53.590;10.020;2022-09-09T06:17:56;14.20;1.00
15003;DHT22;7597;53.590;10.020;2022-09-09T06:20:24;14.20;1.00
15003;DHT22;7597;53.590;10.020;2022-09-09T06:22:51;14.10;1.00
15003;DHT22;7597;53.590;10.020;2022-09-09T06:25:17;14.10;1.00
15003;DHT22;7597;53.590;10.020;2022-09-09T06:27:48;14.00;1.00
15003;DHT22;7597;53.590;10.020;2022-09-09T06:30:12;14.00;1.00
15003;DHT22;7597;53.590;10.020;2022-09-09T06:32:39;13.90;1.00
15003;DHT22;7597;53.590;10.020;2022-09-09T06:35:07;13.90;1.00
15003;DHT22;7597;53.590;10.020;2022-09-09T06:37:33;13.90;1.00
15003;DHT22;7597;53.590;10.020;2022-09-09T06:40:01;14.00;1.00
15003;DHT22;7597;53.590;10.020;2022-09-09T06:42:28;14.00;1.00
15003;DHT22;7597;53.590;10.020;2022-09-09T06:44:55;14.10;1.00
15003;DHT22;7597;53.590;10.020;2022-09-09T06:47:21;14.10;1.00
15003;DHT22;7597;53.590;10.020;2022-09-09T06:49:48;14.00;1.00
15003;DHT22;7597;53.590;10.020;2022-09-09T06:52:14;14.10;1.00
15003;DHT22;7597;53.590;10.020;2022-09-09T06:54:42;14.20;1.00
15003;DHT22;7597;53.590;10.020;2022-09-09T06:57:09;14.20;1.00
15003;DHT22;7597;53.590;10.020;2022-09-09T06:59:35;14.20;1.00
15003;DHT22;7597;53.590;10.020;2022-09-09T07:02:02;14.30;1.00
15003;DHT22;7597;53.590;10.020;2022-09-09T07:04:29;14.40;1.00
15003;DHT22;7597;53.590;10.020;2022-09-09T07:06:55;14.70;1.00
15003;DHT22;7597;53.590;10.020;2022-09-09T07:09:22;15.00;1.00
15003;DHT22;7597;53.590;10.020;2022-09-09T07:11:49;15.40;1.00
15003;DHT22;7597;53.590;10.020;2022-09-09T07:14:15;15.90;1.00
15003;DHT22;7597;53.590;10.020;2022-09-09T07:16:43;17.00;1.00
15003;DHT22;7597;53.590;10.020;2022-09-09T07:19:09;17.50;1.00
15003;DHT22;7597;53.590;10.020;2022-09-09T07:21:36;16.50;1.00
15003;DHT22;7597;53.590;10.020;2022-09-09T07:24:03;16.50;1.00
15003;DHT22;7597;53.590;10.020;2022-09-09T07:26:30;16.00;1.00
15003;DHT22;7597;53.590;10.020;2022-09-09T07:28:56;15.90;1.00
15003;DHT22;7597;53.590;10.020;2022-09-09T07:31:24;16.00;1.00
15003;DHT22;7597;53.590;10.020;2022-09-09T07:33:50;16.10;1.00
15003;DHT22;7597;53.590;10.020;2022-09-09T07:36:20;15.80;1.00
15003;DHT22;7597;53.590;10.020;2022-09-09T07:38:46;15.90;1.00
15003;DHT22;7597;53.590;10.020;2022-09-09T07:41:14;15.90;1.00
15003;DHT22;7597;53.590;10.020;2022-09-09T07:43:41;16.40;1.00
15003;DHT22;7597;53.590;10.020;2022-09-09T07:46:07;17.10;1.00
15003;DHT22;7597;53.590;10.020;2022-09-09T07:48:34;17.90;1.00
15003;DHT22;7597;53.590;10.020;2022-09-09T07:51:05;19.00;99.90
15003;DHT22;7597;53.590;10.020;2022-09-09T07:56:07;19.20;1.00
15003;DHT22;7597;53.590;10.020;2022-09-09T07:58:33;19.20;1.00
15003;DHT22;7597;53.590;10.020;2022-09-09T08:01:00;18.80;1.00
15003;DHT22;7597;53.590;10.020;2022-09-09T08:03:26;18.80;16.70
15003;DHT22;7597;53.590;10.020;2022-09-09T08:05:53;18.20;1.00
15003;DHT22;7597;53.590;10.020;2022-09-09T08:08:19;17.60;1.00
15003;DHT22;7597;53.590;10.020;2022-09-09T08:10:46;17.50;10.40
15003;DHT22;7597;53.590;10.020;2022-09-09T08:13:14;17.80;50.50
15003;DHT22;7597;53.590;10.020;2022-09-09T08:15:40;17.80;50.90
15003;DHT22;7597;53.590;10.020;2022-09-09T08:18:07;18.00;17.10
15003;DHT22;7597;53.590;10.020;2022-09-09T08:20:35;18.40;52.80
15003;DHT22;7597;53.590;10.020;2022-09-09T08:23:00;19.60;93.10
15003;DHT22;7597;53.590;10.020;2022-09-09T08:25:27;20.60;1.00
15003;DHT22;7597;53.590;10.020;2022-09-09T08:27:53;21.30;1.00
15003;DHT22;7597;53.590;10.020;2022-09-09T08:30:20;22.10;1.00
15003;DHT22;7597;53.590;10.020;2022-09-09T08:32:48;22.50;1.00
15003;DHT22;7597;53.590;10.020;2022-09-09T08:35:13;23.00;1.00
15003;DHT22;7597;53.590;10.020;2022-09-09T08:37:40;21.90;1.00
15003;DHT22;7597;53.590;10.020;2022-09-09T08:40:08;21.40;1.00
15003;DHT22;7597;53.590;10.020;2022-09-09T08:42:35;20.60;1.00
15003;DHT22;7597;53.590;10.020;2022-09-09T08:47:47;20.00;1.00
15003;DHT22;7597;53.590;10.020;2022-09-09T08:50:19;19.60;1.00
15003;DHT22;7597;53.590;10.020;2022-09-09T08:52:52;19.40;1.00
15003;DHT22;7597;53.590;10.020;2022-09-09T08:55:22;18.70;1.00
15003;DHT22;7597;53.590;10.020;2022-09-09T08:57:47;18.70;1.00
15003;DHT22;7597;53.590;10.020;2022-09-09T09:00:13;18.80;1.00
15003;DHT22;7597;53.590;10.020;2022-09-09T09:05:20;18.90;1.00
15003;DHT22;7597;53.590;10.020;2022-09-09T09:10:43;21.00;1.00
15003;DHT22;7597;53.590;10.020;2022-09-09T09:13:11;21.90;1.00
15003;DHT22;7597;53.590;10.020;2022-09-09T09:15:36;21.90;1.00
15003;DHT22;7597;53.590;10.020;2022-09-09T09:18:01;21.40;1.00
15003;DHT22;7597;53.590;10.020;2022-09-09T09:20:31;21.40;1.00
15003;DHT22;7597;53.590;10.020;2022-09-09T09:22:54;21.30;1.00
15003;DHT22;7597;53.590;10.020;2022-09-09T09:25:23;21.80;1.00
15003;DHT22;7597;53.590;10.020;2022-09-09T09:27:59;22.30;1.00
15003;DHT22;7597;53.590;10.020;2022-09-09T09:30:29;22.60;1.00
15003;DHT22;7597;53.590;10.020;2022-09-09T09:33:02;23.50;1.00
15003;DHT22;7597;53.590;10.020;2022-09-09T09:35:27;23.80;1.00
15003;DHT22;7597;53.590;10.020;2022-09-09T09:37:54;23.00;1.00
15003;DHT22;7597;53.590;10.020;2022-09-09T09:40:21;21.90;1.00
15003;DHT22;7597;53.590;10.020;2022-09-09T09:42:59;22.50;1.00
15003;DHT22;7597;53.590;10.020;2022-09-09T09:45:32;22.20;1.00
15003;DHT22;7597;53.590;10.020;2022-09-09T09:48:00;22.00;1.00
15003;DHT22;7597;53.590;10.020;2022-09-09T09:50:26;22.10;1.00
15003;DHT22;7597;53.590;10.020;2022-09-09T09:52:55;21.80;1.00
15003;DHT22;7597;53.590;10.020;2022-09-09T09:55:21;21.40;1.00
15003;DHT22;7597;53.590;10.020;2022-09-09T09:57:47;20.90;1.00
15003;DHT22;7597;53.590;10.020;2022-09-09T10:00:18;20.90;1.00
15003;DHT22;7597;53.590;10.020;2022-09-09T10:02:45;21.10;1.00
15003;DHT22;7597;53.590;10.020;2022-09-09T10:05:14;22.10;1.00
15003;DHT22;7597;53.590;10.020;2022-09-09T10:07:40;24.10;1.00
15003;DHT22;7597;53.590;10.020;2022-09-09T10:10:08;25.50;1.00
15003;DHT22;7597;53.590;10.020;2022-09-09T10:12:55;26.10;1.00
15003;DHT22;7597;53.590;10.020;2022-09-09T10:15:43;25.50;1.00
15003;DHT22;7597;53.590;10.020;2022-09-09T10:19:15;25.20;1.00
15003;DHT22;7597;53.590;10.020;2022-09-09T10:21:13;25.90;1.00
15003;DHT22;7597;53.590;10.020;2022-09-09T10:23:52;28.30;1.00
15003;DHT22;7597;53.590;10.020;2022-09-09T10:26:26;28.20;1.00
15003;DHT22;7597;53.590;10.020;2022-09-09T10:28:54;27.20;1.00
15003;DHT22;7597;53.590;10.020;2022-09-09T10:31:18;27.20;1.00
15003;DHT22;7597;53.590;10.020;2022-09-09T10:36:21;25.60;1.00
15003;DHT22;7597;53.590;10.020;2022-09-09T10:38:47;25.60;1.00
15003;DHT22;7597;53.590;10.020;2022-09-09T10:41:30;25.20;1.00
15003;DHT22;7597;53.590;10.020;2022-09-09T10:44:13;24.90;1.00
15003;DHT22;7597;53.590;10.020;2022-09-09T10:46:47;24.90;1.00
15003;DHT22;7597;53.590;10.020;2022-09-09T10:49:36;26.40;1.00
15003;DHT22;7597;53.590;10.020;2022-09-09T10:52:17;26.60;1.00
15003;DHT22;7597;53.590;10.020;2022-09-09T10:54:55;25.60;1.00
15003;DHT22;7597;53.590;10.020;2022-09-09T10:57:44;25.80;1.00
15003;DHT22;7597;53.590;10.020;2022-09-09T11:00:19;25.90;1.00
15003;DHT22;7597;53.590;10.020;2022-09-09T11:02:45;25.60;1.00
15003;DHT22;7597;53.590;10.020;2022-09-09T11:05:19;24.90;1.00
15003;DHT22;7597;53.590;10.020;2022-09-09T11:07:58;24.90;1.00
15003;DHT22;7597;53.590;10.020;2022-09-09T11:10:36;24.60;1.00
15003;DHT22;7597;53.590;10.020;2022-09-09T11:13:01;24.60;1.00
15003;DHT22;7597;53.590;10.020;2022-09-09T11:15:25;24.10;1.00
15003;DHT22;7597;53.590;10.020;2022-09-09T11:17:52;23.60;1.00
15003;DHT22;7597;53.590;10.020;2022-09-09T11:20:17;24.00;1.00
15003;DHT22;7597;53.590;10.020;2022-09-09T11:22:55;24.90;1.00
15003;DHT22;7597;53.590;10.020;2022-09-09T11:25:36;25.20;1.00
15003;DHT22;7597;53.590;10.020;2022-09-09T11:31:02;27.20;1.00
15003;DHT22;7597;53.590;10.020;2022-09-09T11:33:36;27.00;1.00
15003;DHT22;7597;53.590;10.020;2022-09-09T11:36:03;25.50;1.00
15003;DHT22;7597;53.590;10.020;2022-09-09T11:38:29;25.60;1.00
15003;DHT22;7597;53.590;10.020;2022-09-09T11:40:58;25.30;1.00
15003;DHT22;7597;53.590;10.020;2022-09-09T11:43:33;24.60;1.00
15003;DHT22;7597;53.590;10.020;2022-09-09T11:46:02;24.10;1.00
15003;DHT22;7597;53.590;10.020;2022-09-09T11:48:35;22.80;1.00
15003;DHT22;7597;53.590;10.020;2022-09-09T11:51:10;22.10;1.00
15003;DHT22;7597;53.590;10.020;2022-09-09T11:53:36;21.80;1.00
15003;DHT22;7597;53.590;10.020;2022-09-09T11:56:05;22.20;1.00
15003;DHT22;7597;53.590;10.020;2022-09-09T11:58:36;22.60;1.00
15003;DHT22;7597;53.590;10.020;2022-09-09T12:00:59;22.30;1.00
15003;DHT22;7597;53.590;10.020;2022-09-09T12:03:33;21.90;1.00
15003;DHT22;7597;53.590;10.020;2022-09-09T12:05:58;22.50;1.00
15003;DHT22;7597;53.590;10.020;2022-09-09T12:08:27;23.10;1.00
15003;DHT22;7597;53.590;10.020;2022-09-09T12:10:55;23.60;1.00
15003;DHT22;7597;53.590;10.020;2022-09-09T12:13:21;24.00;1.00
15003;DHT22;7597;53.590;10.020;2022-09-09T12:15:49;23.20;1.00
15003;DHT22;7597;53.590;10.020;2022-09-09T12:18:21;22.50;1.00
15003;DHT22;7597;53.590;10.020;2022-09-09T12:20:50;22.30;1.00
15003;DHT22;7597;53.590;10.020;2022-09-09T12:23:22;21.60;1.00
15003;DHT22;7597;53.590;10.020;2022-09-09T12:26:16;21.30;1.00
15003;DHT22;7597;53.590;10.020;2022-09-09T12:28:51;21.30;1.00
15003;DHT22;7597;53.590;10.020;2022-09-09T12:31:26;21.40;1.00
15003;DHT22;7597;53.590;10.020;2022-09-09T12:33:53;20.70;1.00
15003;DHT22;7597;53.590;10.020;2022-09-09T12:36:27;20.10;1.00
15003;DHT22;7597;53.590;10.020;2022-09-09T12:38:51;19.70;1.00
15003;DHT22;7597;53.590;10.020;2022-09-09T12:41:24;19.80;1.00
15003;DHT22;7597;53.590;10.020;2022-09-09T12:43:49;19.50;1.00
15003;DHT22;7597;53.590;10.020;2022-09-09T12:46:48;19.40;1.00
15003;DHT22;7597;53.590;10.020;2022-09-09T12:48:58;19.30;1.00
15003;DHT22;7597;53.590;10.020;2022-09-09T12:51:28;19.40;1.00
15003;DHT22;7597;53.590;10.020;2022-09-09T12:53:54;19.40;1.00
15003;DHT22;7597;53.590;10.020;2022-09-09T12:56:22;19.50;1.00
15003;DHT22;7597;53.590;10.020;2022-09-09T12:58:49;19.20;1.00
15003;DHT22;7597;53.590;10.020;2022-09-09T13:01:24;19.00;1.00
15003;DHT22;7597;53.590;10.020;2022-09-09T13:03:49;18.80;1.00
15003;DHT22;7597;53.590;10.020;2022-09-09T13:06:23;18.70;1.00
15003;DHT22;7597;53.590;10.020;2022-09-09T13:08:50;18.60;1.00
15003;DHT22;7597;53.590;10.020;2022-09-09T13:11:18;18.50;1.00
15003;DHT22;7597;53.590;10.020;2022-09-09T13:13:43;18.40;1.00
15003;DHT22;7597;53.590;10.020;2022-09-09T13:16:25;18.40;1.00
15003;DHT22;7597;53.590;10.020;2022-09-09T13:18:49;18.30;1.00
15003;DHT22;7597;53.590;10.020;2022-09-09T13:21:16;18.20;1.00
15003;DHT22;7597;53.590;10.020;2022-09-09T13:23:42;18.20;1.00
15003;DHT22;7597;53.590;10.020;2022-09-09T13:26:22;18.20;1.00
15003;DHT22;7597;53.590;10.020;2022-09-09T13:28:47;18.20;1.00
15003;DHT22;7597;53.590;10.020;2022-09-09T13:31:24;18.20;1.00
15003;DHT22;7597;53.590;10.020;2022-09-09T13:33:48;18.20;1.00
15003;DHT22;7597;53.590;10.020;2022-09-09T13:36:14;18.20;1.00
15003;DHT22;7597;53.590;10.020;2022-09-09T13:38:55;18.20;1.00
15003;DHT22;7597;53.590;10.020;2022-09-09T13:41:22;18.10;1.00
15003;DHT22;7597;53.590;10.020;2022-09-09T13:43:48;17.90;1.00
15003;DHT22;7597;53.590;10.020;2022-09-09T13:46:37;17.70;1.00
15003;DHT22;7597;53.590;10.020;2022-09-09T13:49:18;17.50;1.00
15003;DHT22;7597;53.590;10.020;2022-09-09T13:51:35;17.30;1.00
15003;DHT22;7597;53.590;10.020;2022-09-09T13:54:01;17.10;1.00
15003;DHT22;7597;53.590;10.020;2022-09-09T13:56:27;16.90;1.00
15003;DHT22;7597;53.590;10.020;2022-09-09T13:58:54;16.70;1.00
15003;DHT22;7597;53.590;10.020;2022-09-09T14:01:20;16.70;23.90
15003;DHT22;7597;53.590;10.020;2022-09-09T14:03:47;16.60;62.00
15003;DHT22;7597;53.590;10.020;2022-09-09T14:06:14;16.50;98.30
15003;DHT22;7597;53.590;10.020;2022-09-09T14:08:42;16.50;99.90
15003;DHT22;7597;53.590;10.020;2022-09-09T14:11:10;16.40;99.90
15003;DHT22;7597;53.590;10.020;2022-09-09T14:13:35;16.40;99.90
15003;DHT22;7597;53.590;10.020;2022-09-09T14:16:02;16.40;99.90
15003;DHT22;7597;53.590;10.020;2022-09-09T14:18:28;16.40;99.90
15003;DHT22;7597;53.590;10.020;2022-09-09T14:20:55;16.40;99.90
15003;DHT22;7597;53.590;10.020;2022-09-09T14:23:22;16.40;99.90
15003;DHT22;7597;53.590;10.020;2022-09-09T14:25:50;16.40;99.90
15003;DHT22;7597;53.590;10.020;2022-09-09T14:28:16;16.40;99.90
15003;DHT22;7597;53.590;10.020;2022-09-09T14:30:42;16.40;99.90
15003;DHT22;7597;53.590;10.020;2022-09-09T14:33:09;16.40;99.90
15003;DHT22;7597;53.590;10.020;2022-09-09T14:35:35;16.40;99.90
15003;DHT22;7597;53.590;10.020;2022-09-09T14:38:03;16.40;99.90
15003;DHT22;7597;53.590;10.020;2022-09-09T14:40:29;16.40;99.90
15003;DHT22;7597;53.590;10.020;2022-09-09T14:42:56;16.20;99.90
15003;DHT22;7597;53.590;10.020;2022-09-09T14:45:23;16.10;99.90
15003;DHT22;7597;53.590;10.020;2022-09-09T14:47:49;16.10;99.90
15003;DHT22;7597;53.590;10.020;2022-09-09T14:50:16;16.00;99.90
15003;DHT22;7597;53.590;10.020;2022-09-09T14:52:42;16.00;99.90
15003;DHT22;7597;53.590;10.020;2022-09-09T14:55:09;16.10;99.90
15003;DHT22;7597;53.590;10.020;2022-09-09T14:57:36;16.10;99.90
15003;DHT22;7597;53.590;10.020;2022-09-09T15:00:03;16.00;99.90
15003;DHT22;7597;53.590;10.020;2022-09-09T15:02:29;16.00;99.90
15003;DHT22;7597;53.590;10.020;2022-09-09T15:04:56;16.00;99.90
15003;DHT22;7597;53.590;10.020;2022-09-09T15:07:24;15.90;99.90
15003;DHT22;7597;53.590;10.020;2022-09-09T15:09:50;15.90;99.90
15003;DHT22;7597;53.590;10.020;2022-09-09T15:12:18;15.90;99.90
15003;DHT22;7597;53.590;10.020;2022-09-09T15:14:45;15.90;99.90
15003;DHT22;7597;53.590;10.020;2022-09-09T15:17:12;15.90;99.90
15003;DHT22;7597;53.590;10.020;2022-09-09T15:19:39;16.00;99.90
15003;DHT22;7597;53.590;10.020;2022-09-09T15:22:05;16.00;99.90
15003;DHT22;7597;53.590;10.020;2022-09-09T15:24:32;16.10;99.90
15003;DHT22;7597;53.590;10.020;2022-09-09T15:26:59;16.10;99.90
15003;DHT22;7597;53.590;10.020;2022-09-09T15:29:25;16.10;99.90
15003;DHT22;7597;53.590;10.020;2022-09-09T15:31:53;16.10;99.90
15003;DHT22;7597;53.590;10.020;2022-09-09T15:34:19;16.20;99.90
15003;DHT22;7597;53.590;10.020;2022-09-09T15:36:46;16.10;99.90
15003;DHT22;7597;53.590;10.020;2022-09-09T15:39:15;16.10;99.90
15003;DHT22;7597;53.590;10.020;2022-09-09T15:41:40;16.10;99.90
15003;DHT22;7597;53.590;10.020;2022-09-09T15:44:07;16.20;99.90
15003;DHT22;7597;53.590;10.020;2022-09-09T15:46:36;16.20;99.90
15003;DHT22;7597;53.590;10.020;2022-09-09T15:49:04;16.20;99.90
15003;DHT22;7597;53.590;10.020;2022-09-09T15:51:29;16.20;99.90
15003;DHT22;7597;53.590;10.020;2022-09-09T15:53:57;16.20;99.90
15003;DHT22;7597;53.590;10.020;2022-09-09T15:56:24;16.20;99.90
15003;DHT22;7597;53.590;10.020;2022-09-09T15:58:50;16.10;99.90
15003;DHT22;7597;53.590;10.020;2022-09-09T16:01:17;16.10;99.90
15003;DHT22;7597;53.590;10.020;2022-09-09T16:03:43;16.10;99.90
15003;DHT22;7597;53.590;10.020;2022-09-09T16:06:14;16.10;99.90
15003;DHT22;7597;53.590;10.020;2022-09-09T16:08:41;16.10;99.90
15003;DHT22;7597;53.590;10.020;2022-09-09T16:11:07;16.30;99.90